»·PEaware :: N6801K KPMD-KONT

N6801K :: KPMD-KONT

FLIGHT INFORMATION

Flight Status: Arrived
Operator: Privately registered:
United States
More flights under this callsign
Pilot: John P. (31881)
Aircraft: BEECH AIRCRAFT BARON
(BE58)
More flights by this aircraft type
Origin: KPMD Palmdale AF Plant 42
United States
Destination: KONT Ontario Intl
United States
More flights between these airports :: More routes between these airports
Route: +
File this flight plan on PilotEdge
Remarks:
Altitude:
(Current/Filed)
7,500ft
Speed:
(Current/Filed)
176kts
Departed: 12-Nov-20 04:21 PM
Arrived: 12-Nov-20 04:40 PM
Distance/Time
Traveled:
6768nm/0:19
Distance/Time
To Go:
Arrived

Flight Plot

Page will automatically refresh every two minutes.

Flight plan parsing failed; only flown route is shown


Map Options




Map Legend


Flown Route
Filed Route
Departure Airport
Arrival Airport
Navaid (VOR, NDB)
Fix

Horizontal Profiles

Position Reports

Time Latitude Longitude Heading Altitude Ground
Speed
12-Nov-20 16:03 0.000408 0.013975 0 3ft 0kts
12-Nov-20 16:04 34.636450 -118.095781 90 2518ft 0kts
12-Nov-20 16:05 34.636450 -118.095780 90 2517ft 0kts
12-Nov-20 16:06 34.636450 -118.095780 90 2517ft 0kts
12-Nov-20 16:07 34.636450 -118.095786 90 2517ft 0kts
12-Nov-20 16:08 34.636450 -118.095788 90 2517ft 0kts
12-Nov-20 16:09 34.636450 -118.095790 91 2517ft 0kts
12-Nov-20 16:10 34.636451 -118.095792 91 2517ft 0kts
12-Nov-20 16:11 34.636450 -118.095759 91 2517ft 4kts
12-Nov-20 16:12 34.636449 -118.095748 91 2517ft 0kts
12-Nov-20 16:13 34.636449 -118.095748 91 2517ft 0kts
12-Nov-20 16:14 34.636449 -118.095748 91 2517ft 0kts
12-Nov-20 16:15 34.636449 -118.095748 91 2517ft 0kts
12-Nov-20 16:16 34.636449 -118.095748 91 2517ft 0kts
12-Nov-20 16:17 34.634684 -118.096074 137 2521ft 18kts
12-Nov-20 16:17 34.634913 -118.086754 88 2516ft 37kts
12-Nov-20 16:19 34.635558 -118.071838 216 2501ft 5kts
12-Nov-20 16:19 34.634519 -118.073599 176 2498ft 0kts
12-Nov-20 16:21 34.631604 -118.090969 260 2621ft 136kts
12-Nov-20 16:21 34.616279 -118.099022 97 4652ft 114kts
12-Nov-20 16:23 34.599486 -118.060873 141 6983ft 120kts
12-Nov-20 16:23 34.571179 -118.034502 145 7485ft 181kts
12-Nov-20 16:24 34.536799 -118.006109 146 9359ft 163kts
12-Nov-20 16:25 34.496253 -117.971485 145 9492ft 196kts
12-Nov-20 16:26 34.450861 -117.933149 145 9493ft 198kts
12-Nov-20 16:27 34.407647 -117.896612 145 9503ft 186kts
12-Nov-20 16:28 34.365333 -117.860884 145 9506ft 186kts
12-Nov-20 16:29 34.322899 -117.825117 145 9499ft 185kts
12-Nov-20 16:30 34.280394 -117.789332 146 9411ft 187kts
12-Nov-20 16:31 34.235791 -117.751814 145 8918ft 197kts
12-Nov-20 16:32 34.190375 -117.713709 145 7941ft 201kts
12-Nov-20 16:33 34.160797 -117.661717 104 5686ft 197kts
12-Nov-20 16:34 34.147450 -117.599412 104 3413ft 195kts
12-Nov-20 16:35 34.132624 -117.539782 134 2084ft 171kts
12-Nov-20 16:36 34.089694 -117.539348 187 2024ft 136kts
12-Nov-20 16:37 34.058981 -117.545180 207 1796ft 117kts
12-Nov-20 16:38 34.054913 -117.582112 270 986ft 113kts
12-Nov-20 16:39 34.053944 -117.602537 195 934ft 0kts
12-Nov-20 16:40 34.052743 -117.603587 193 932ft 11kts
12-Nov-20 16:41 34.052632 -117.603081 91 931ft 0kts
12-Nov-20 16:42 0.000408 0.013975 0 3ft 0kts
12-Nov-20 16:43 0.000408 0.013975 0 3ft 0kts
12-Nov-20 16:44 0.000408 0.013975 0 3ft 0kts
12-Nov-20 16:45 0.000408 0.013975 0 3ft 0kts
12-Nov-20 16:46 0.000408 0.013975 0 3ft 0kts
12-Nov-20 16:47 0.000408 0.013975 0 3ft 0kts
12-Nov-20 16:48 0.000408 0.013975 0 3ft 0kts
12-Nov-20 16:49 0.000408 0.013975 0 3ft 0kts
12-Nov-20 16:50 0.000408 0.013975 0 3ft 0kts
12-Nov-20 16:51 0.000408 0.013975 0 3ft 0kts
12-Nov-20 16:52 0.000408 0.013975 0 3ft 0kts
12-Nov-20 16:53 0.000408 0.013975 0 3ft 0kts
12-Nov-20 16:54 0.000408 0.013975 0 3ft 0kts

Navigation Log

Ident Type
Flight plan parsing failed, navigation log unavailable